Wetterdaten: Woche 01.10.18 - 07.10.18 (KW40)
Datum Zeit Temp. Aussen Temp. o. S. +5cm Feuchte Auss Luftdruck Regen Sonnenschein Regendauer Solar Windben Empfang
01.10.2018 00:00 10,5 C 9,5 C 9,5 C 84 % 1013,1 hPa 0,0 l/m 0,00 h 0,00 h 0 W/m 2,8 km/h (1 Bft) 96,78 %
01.10.2018 01:00 10,3 C 9,8 C 9,8 C 86 % 1013,1 hPa 0,0 l/m 0,00 h 0,00 h 0 W/m 2,0 km/h (1 Bft) 99,36 %
01.10.2018 02:00 10,4 C 9,6 C 9,4 C 87 % 1013,0 hPa 0,0 l/m 0,00 h 0,00 h 0 W/m 0,3 km/h (0 Bft) 95,65 %
01.10.2018 03:00 10,3 C 9,4 C 9,4 C 88 % 1013,0 hPa 0,0 l/m 0,00 h 0,00 h 0 W/m 2,4 km/h (1 Bft) 97,22 %
01.10.2018 04:00 10,2 C 9,5 C 9,4 C 90 % 1013,2 hPa 0,0 l/m 0,00 h 0,00 h 0 W/m 6,5 km/h (2 Bft) 98,93 %
01.10.2018 05:00 10,2 C 9,4 C 9,4 C 89 % 1013,2 hPa 0,0 l/m 0,00 h 0,00 h 0 W/m 5,6 km/h (1 Bft) 96,58 %
01.10.2018 06:00 9,9 C 9,4 C 9,1 C 90 % 1013,4 hPa 0,0 l/m 0,00 h 0,00 h 0 W/m 7,1 km/h (2 Bft) 97,62 %
01.10.2018 07:00 9,7 C 9,0 C 8,9 C 89 % 1013,9 hPa 0,0 l/m 0,00 h 0,00 h 6 W/m 8,0 km/h (2 Bft) 97,39 %
01.10.2018 08:00 9,6 C 9,2 C 8,9 C 90 % 1014,5 hPa 0,0 l/m 0,00 h 0,00 h 47 W/m 9,8 km/h (2 Bft) 97,01 %
01.10.2018 09:00 9,8 C 10,0 C 9,3 C 88 % 1015,1 hPa 0,0 l/m 0,27 h 0,00 h 87 W/m 13,4 km/h (3 Bft) 99,36 %
01.10.2018 10:00 11,5 C 15,8 C 10,5 C 84 % 1016,0 hPa 0,0 l/m 0,23 h 0,00 h 151 W/m 16,9 km/h (3 Bft) 96,63 %
01.10.2018 11:00 12,9 C 14,6 C 11,5 C 76 % 1016,4 hPa 0,0 l/m 0,30 h 0,00 h 213 W/m 18,6 km/h (3 Bft) 96,65 %
01.10.2018 12:00 13,4 C 16,5 C 11,8 C 72 % 1016,5 hPa 0,0 l/m 0,03 h 0,13 h 151 W/m 21,5 km/h (4 Bft) 98,36 %
01.10.2018 13:00 11,5 C 9,9 C 9,2 C 78 % 1017,3 hPa 0,6 l/m 0,10 h 0,53 h 189 W/m 26,4 km/h (4 Bft) 95,52 %
01.10.2018 14:00 10,6 C 9,9 C 8,9 C 89 % 1017,4 hPa 0,8 l/m 0,60 h 0,27 h 302 W/m 19,6 km/h (3 Bft) 97,24 %
01.10.2018 15:00 11,2 C 10,7 C 9,6 C 85 % 1017,2 hPa 0,0 l/m 0,97 h 0,00 h 492 W/m 21,5 km/h (4 Bft) 99,07 %
01.10.2018 16:00 12,4 C 12,9 C 9,7 C 70 % 1017,4 hPa 0,2 l/m 0,67 h 0,20 h 308 W/m 32,6 km/h (5 Bft) 95,94 %
01.10.2018 17:00 11,9 C 11,7 C 10,6 C 70 % 1017,9 hPa 0,0 l/m 0,73 h 0,00 h 183 W/m 25,0 km/h (4 Bft) 97,16 %
01.10.2018 18:00 11,3 C 10,4 C 9,7 C 72 % 1018,7 hPa 0,0 l/m 0,40 h 0,00 h 44 W/m 19,6 km/h (3 Bft) 99,01 %
01.10.2018 19:00 9,5 C 8,0 C 8,1 C 80 % 1019,6 hPa 0,0 l/m 0,00 h 0,00 h 7 W/m 10,4 km/h (2 Bft) 96,01 %
01.10.2018 20:00 8,2 C 7,1 C 7,3 C 85 % 1020,3 hPa 0,0 l/m 0,00 h 0,00 h 0 W/m 8,5 km/h (2 Bft) 97,01 %
01.10.2018 21:00 7,5 C 6,7 C 6,8 C 86 % 1020,5 hPa 0,0 l/m 0,00 h 0,03 h 0 W/m 5,7 km/h (1 Bft) 98,44 %
01.10.2018 22:00 7,1 C 6,1 C 6,4 C 88 % 1020,6 hPa 0,0 l/m 0,00 h 0,00 h 0 W/m 2,3 km/h (1 Bft) 96,16 %
01.10.2018 23:00 6,7 C 6,1 C 6,5 C 90 % 1020,7 hPa 0,0 l/m 0,00 h 0,00 h 0 W/m 3,5 km/h (1 Bft) 99,43 %
02.10.2018 00:00 6,9 C 6,7 C 6,7 C 90 % 1020,4 hPa 0,0 l/m 0,00 h 0,00 h 0 W/m 4,8 km/h (1 Bft) 97,42 %
02.10.2018 01:00 7,3 C 6,7 C 6,8 C 91 % 1020,4 hPa 0,0 l/m 0,00 h 0,33 h 0 W/m 5,7 km/h (1 Bft) 95,65 %
02.10.2018 02:00 7,5 C 6,7 C 6,9 C 92 % 1020,0 hPa 0,0 l/m 0,00 h 0,10 h 0 W/m 2,8 km/h (1 Bft) 98,29 %
02.10.2018 03:00 7,5 C 7,1 C 7,2 C 92 % 1019,6 hPa 0,0 l/m 0,00 h 0,00 h 0 W/m 5,8 km/h (2 Bft) 98,57 %
02.10.2018 04:00 7,7 C 7,2 C 7,2 C 91 % 1019,0 hPa 0,0 l/m 0,00 h 0,03 h 0 W/m 8,5 km/h (2 Bft) 97,92 %
02.10.2018 05:00 7,8 C 7,5 C 7,2 C 90 % 1018,4 hPa 0,0 l/m 0,00 h 0,00 h 0 W/m 9,5 km/h (2 Bft) 95,45 %
02.10.2018 06:00 8,1 C 7,8 C 7,7 C 86 % 1017,5 hPa 0,0 l/m 0,00 h 0,00 h 0 W/m 12,7 km/h (3 Bft) 98,44 %
02.10.2018 07:00 8,5 C 8,1 C 7,8 C 82 % 1016,9 hPa 0,0 l/m 0,00 h 0,00 h 5 W/m 11,6 km/h (2 Bft) 93,67 %
02.10.2018 08:00 8,7 C 7,9 C 7,6 C 83 % 1016,4 hPa 0,2 l/m 0,00 h 0,63 h 16 W/m 12,9 km/h (3 Bft) 95,93 %
02.10.2018 09:00 8,8 C 8,6 C 8,1 C 84 % 1015,7 hPa 0,0 l/m 0,00 h 0,00 h 36 W/m 14,2 km/h (3 Bft) 95,49 %
02.10.2018 10:00 9,7 C 9,4 C 8,8 C 82 % 1015,6 hPa 0,0 l/m 0,00 h 0,17 h 64 W/m 14,6 km/h (3 Bft) 98,37 %
02.10.2018 11:00 9,7 C 8,3 C 8,1 C 89 % 1015,4 hPa 0,2 l/m 0,00 h 0,70 h 72 W/m 12,5 km/h (3 Bft) 97,44 %
02.10.2018 12:00 9,7 C 8,9 C 8,7 C 95 % 1015,1 hPa 0,0 l/m 0,00 h 0,23 h 87 W/m 14,7 km/h (3 Bft) 94,41 %
02.10.2018 13:00 10,4 C 9,6 C 9,5 C 96 % 1014,8 hPa 0,0 l/m 0,00 h 0,50 h 82 W/m 12,0 km/h (2 Bft) 94,95 %
02.10.2018 14:00 11,1 C 10,5 C 10,2 C 97 % 1014,4 hPa 0,0 l/m 0,00 h 0,37 h 87 W/m 12,2 km/h (2 Bft) 96,54 %
02.10.2018 15:00 11,8 C 11,2 C 11,0 C 97 % 1014,5 hPa 0,0 l/m 0,00 h 0,00 h 83 W/m 12,6 km/h (3 Bft) 97,22 %
02.10.2018 16:00 12,9 C 13,3 C 12,1 C 97 % 1014,5 hPa 0,0 l/m 0,67 h 0,00 h 243 W/m 11,9 km/h (2 Bft) 97,90 %
02.10.2018 17:00 14,1 C 14,3 C 13,0 C 94 % 1014,5 hPa 0,0 l/m 0,70 h 0,00 h 151 W/m 12,3 km/h (3 Bft) 96,12 %
02.10.2018 18:00 14,7 C 14,1 C 13,2 C 90 % 1014,9 hPa 0,0 l/m 0,47 h 0,00 h 46 W/m 10,8 km/h (2 Bft) 98,22 %
02.10.2018 19:00 13,8 C 12,5 C 11,9 C 85 % 1015,8 hPa 0,0 l/m 0,00 h 0,00 h 6 W/m 4,9 km/h (1 Bft) 97,20 %
02.10.2018 20:00 12,5 C 11,4 C 10,7 C 86 % 1016,3 hPa 0,0 l/m 0,00 h 0,00 h 0 W/m 2,8 km/h (1 Bft) 95,80 %
02.10.2018 21:00 12,0 C 11,0 C 10,5 C 88 % 1016,6 hPa 0,0 l/m 0,00 h 0,00 h 0 W/m 2,2 km/h (1 Bft) 99,43 %
02.10.2018 22:00 11,5 C 10,8 C 10,3 C 89 % 1016,8 hPa 0,0 l/m 0,00 h 0,00 h 0 W/m 1,6 km/h (1 Bft) 97,79 %
02.10.2018 23:00 11,7 C 11,6 C 11,1 C 92 % 1016,9 hPa 0,0 l/m 0,00 h 0,00 h 0 W/m 1,4 km/h (1 Bft) 94,81 %
03.10.2018 00:00 11,8 C 11,1 C 10,6 C 92 % 1016,8 hPa 0,0 l/m 0,00 h 0,00 h 0 W/m 3,6 km/h (1 Bft) 99,31 %
03.10.2018 01:00 11,7 C 11,1 C 10,7 C 93 % 1016,9 hPa 0,0 l/m 0,00 h 0,00 h 0 W/m 3,6 km/h (1 Bft) 97,01 %
03.10.2018 02:00 11,8 C 11,2 C 10,7 C 93 % 1017,4 hPa 0,0 l/m 0,00 h 0,00 h 0 W/m 2,3 km/h (1 Bft) 97,51 %
03.10.2018 03:00 11,6 C 10,8 C 10,4 C 94 % 1017,9 hPa 0,0 l/m 0,00 h 0,00 h 0 W/m 1,5 km/h (1 Bft) 97,52 %
03.10.2018 04:00 11,6 C 10,9 C 10,6 C 95 % 1018,2 hPa 0,0 l/m 0,00 h 0,00 h 0 W/m 2,2 km/h (1 Bft) 96,34 %
03.10.2018 05:00 11,5 C 10,5 C 10,4 C 96 % 1018,6 hPa 0,0 l/m 0,00 h 0,00 h 0 W/m 2,9 km/h (1 Bft) 98,94 %
03.10.2018 06:00 11,0 C 10,0 C 10,0 C 96 % 1019,2 hPa 0,0 l/m 0,00 h 0,00 h 0 W/m 2,9 km/h (1 Bft) 98,01 %
03.10.2018 07:00 10,2 C 9,4 C 9,4 C 96 % 1019,8 hPa 0,0 l/m 0,00 h 0,00 h 9 W/m 2,5 km/h (1 Bft) 94,66 %
03.10.2018 08:00 9,8 C 9,5 C 9,4 C 96 % 1020,7 hPa 0,0 l/m 0,00 h 0,00 h 35 W/m 3,5 km/h (1 Bft) 99,21 %
03.10.2018 09:00 10,3 C 11,5 C 10,1 C 96 % 1021,7 hPa 0,0 l/m 0,23 h 0,00 h 112 W/m 5,6 km/h (1 Bft) 97,79 %
03.10.2018 10:00 12,0 C 16,5 C 11,3 C 92 % 1022,6 hPa 0,0 l/m 0,30 h 0,00 h 170 W/m 9,0 km/h (2 Bft) 95,31 %
03.10.2018 11:00 14,6 C 18,3 C 12,7 C 76 % 1023,2 hPa 0,0 l/m 0,53 h 0,00 h 292 W/m 17,4 km/h (3 Bft) 99,42 %
03.10.2018 12:00 15,1 C 16,3 C 13,1 C 71 % 1023,7 hPa 0,0 l/m 0,13 h 0,00 h 208 W/m 17,9 km/h (3 Bft) 97,51 %
03.10.2018 13:00 14,6 C 14,8 C 13,2 C 72 % 1024,0 hPa 0,0 l/m 0,07 h 0,00 h 212 W/m 13,3 km/h (3 Bft) 97,14 %
03.10.2018 14:00 15,1 C 15,6 C 13,8 C 70 % 1024,0 hPa 0,0 l/m 0,60 h 0,00 h 301 W/m 13,4 km/h (3 Bft) 97,77 %
03.10.2018 15:00 15,9 C 16,3 C 14,4 C 66 % 1023,9 hPa 0,0 l/m 0,93 h 0,00 h 399 W/m 12,1 km/h (2 Bft) 97,88 %
03.10.2018 16:00 16,2 C 16,9 C 14,2 C 65 % 1023,7 hPa 0,0 l/m 0,87 h 0,00 h 288 W/m 12,4 km/h (3 Bft) 97,00 %
03.10.2018 17:00 16,1 C 15,5 C 14,1 C 65 % 1023,6 hPa 0,0 l/m 0,47 h 0,00 h 149 W/m 9,7 km/h (2 Bft) 96,77 %
03.10.2018 18:00 15,1 C 14,0 C 13,2 C 69 % 1024,0 hPa 0,0 l/m 0,77 h 0,00 h 50 W/m 5,4 km/h (1 Bft) 98,86 %
03.10.2018 19:00 13,8 C 11,8 C 11,4 C 74 % 1024,6 hPa 0,0 l/m 0,00 h 0,00 h 8 W/m 1,9 km/h (1 Bft) 96,14 %
03.10.2018 20:00 11,9 C 10,0 C 9,4 C 78 % 1025,0 hPa 0,0 l/m 0,00 h 0,00 h 0 W/m 0,0 km/h (0 Bft) 97,47 %
03.10.2018 21:00 10,3 C 8,7 C 8,3 C 82 % 1025,2 hPa 0,0 l/m 0,00 h 0,00 h 0 W/m 0,1 km/h (0 Bft) 98,02 %
03.10.2018 22:00 9,3 C 8,1 C 7,7 C 85 % 1025,4 hPa 0,0 l/m 0,00 h 0,00 h 0 W/m 0,1 km/h (0 Bft) 99,29 %
03.10.2018 23:00 8,6 C 7,7 C 7,1 C 87 % 1025,5 hPa 0,0 l/m 0,00 h 0,00 h 0 W/m 0,0 km/h (0 Bft) 94,82 %
04.10.2018 00:00 8,0 C 7,2 C 6,9 C 89 % 1025,5 hPa 0,0 l/m 0,00 h 0,00 h 0 W/m 0,0 km/h (0 Bft) 97,92 %
04.10.2018 01:00 7,6 C 7,1 C 6,8 C 91 % 1025,5 hPa 0,0 l/m 0,00 h 0,00 h 0 W/m 0,3 km/h (0 Bft) 97,91 %
04.10.2018 02:00 8,1 C 8,3 C 7,8 C 93 % 1025,5 hPa 0,0 l/m 0,00 h 0,00 h 0 W/m 0,6 km/h (0 Bft) 97,73 %
04.10.2018 03:00 8,9 C 9,1 C 8,8 C 94 % 1025,3 hPa 0,0 l/m 0,00 h 0,00 h 0 W/m 3,7 km/h (1 Bft) 97,27 %
04.10.2018 04:00 9,6 C 9,4 C 9,4 C 94 % 1025,0 hPa 0,0 l/m 0,00 h 0,00 h 0 W/m 3,4 km/h (1 Bft) 97,65 %
04.10.2018 05:00 10,0 C 9,8 C 9,4 C 92 % 1024,7 hPa 0,0 l/m 0,00 h 0,00 h 0 W/m 4,5 km/h (1 Bft) 98,15 %
04.10.2018 06:00 10,2 C 9,6 C 9,4 C 92 % 1024,6 hPa 0,0 l/m 0,00 h 0,00 h 0 W/m 6,0 km/h (2 Bft) 97,51 %
04.10.2018 07:00 10,2 C 9,9 C 9,4 C 92 % 1024,7 hPa 0,0 l/m 0,00 h 0,00 h 5 W/m 5,0 km/h (1 Bft) 95,87 %
04.10.2018 08:00 10,3 C 10,0 C 9,6 C 92 % 1024,7 hPa 0,0 l/m 0,00 h 0,00 h 20 W/m 9,2 km/h (2 Bft) 98,43 %
04.10.2018 09:00 10,7 C 10,7 C 10,0 C 92 % 1025,0 hPa 0,0 l/m 0,00 h 0,00 h 46 W/m 8,3 km/h (2 Bft) 98,11 %
04.10.2018 10:00 11,2 C 11,2 C 10,6 C 92 % 1025,5 hPa 0,0 l/m 0,00 h 0,00 h 70 W/m 6,9 km/h (2 Bft) 96,80 %
04.10.2018 11:00 11,8 C 12,4 C 11,3 C 91 % 1025,5 hPa 0,0 l/m 0,00 h 0,00 h 136 W/m 8,9 km/h (2 Bft) 98,29 %
04.10.2018 12:00 13,2 C 14,3 C 12,5 C 88 % 1025,3 hPa 0,0 l/m 0,00 h 0,00 h 215 W/m 8,9 km/h (2 Bft) 96,15 %
04.10.2018 13:00 14,9 C 16,0 C 13,9 C 84 % 1025,0 hPa 0,0 l/m 0,27 h 0,00 h 268 W/m 10,5 km/h (2 Bft) 97,93 %
04.10.2018 14:00 16,6 C 17,5 C 15,4 C 78 % 1024,3 hPa 0,0 l/m 0,83 h 0,00 h 306 W/m 11,5 km/h (2 Bft) 98,81 %
04.10.2018 15:00 17,4 C 17,4 C 15,7 C 72 % 1023,9 hPa 0,0 l/m 0,60 h 0,00 h 314 W/m 11,5 km/h (2 Bft) 96,20 %
04.10.2018 16:00 17,9 C 19,4 C 15,7 C 71 % 1023,3 hPa 0,0 l/m 1,00 h 0,00 h 355 W/m 12,4 km/h (3 Bft) 97,92 %
04.10.2018 17:00 17,6 C 17,1 C 15,1 C 71 % 1022,8 hPa 0,0 l/m 0,37 h 0,00 h 120 W/m 9,5 km/h (2 Bft) 98,01 %
04.10.2018 18:00 16,6 C 15,3 C 13,9 C 74 % 1022,6 hPa 0,0 l/m 0,00 h 0,00 h 27 W/m 5,9 km/h (2 Bft) 98,17 %
04.10.2018 19:00 15,2 C 13,3 C 12,1 C 78 % 1022,6 hPa 0,0 l/m 0,00 h 0,00 h 6 W/m 1,6 km/h (1 Bft) 97,37 %
04.10.2018 20:00 13,5 C 12,0 C 10,9 C 82 % 1022,3 hPa 0,0 l/m 0,00 h 0,00 h 0 W/m 0,9 km/h (0 Bft) 95,21 %
04.10.2018 21:00 12,1 C 10,3 C 9,9 C 85 % 1022,2 hPa 0,0 l/m 0,00 h 0,00 h 0 W/m 0,0 km/h (0 Bft) 99,79 %
04.10.2018 22:00 10,8 C 9,8 C 9,4 C 88 % 1022,0 hPa 0,0 l/m 0,00 h 0,00 h 0 W/m 0,9 km/h (0 Bft) 97,96 %
04.10.2018 23:00 10,4 C 9,9 C 9,4 C 91 % 1021,6 hPa 0,0 l/m 0,00 h 0,00 h 0 W/m 4,9 km/h (1 Bft) 96,52 %
05.10.2018 00:00 10,4 C 9,8 C 9,6 C 92 % 1021,4 hPa 0,0 l/m 0,00 h 0,00 h 0 W/m 8,3 km/h (2 Bft) 93,09 %
05.10.2018 01:00 10,2 C 9,4 C 9,4 C 92 % 1021,0 hPa 0,0 l/m 0,00 h 0,00 h 0 W/m 9,7 km/h (2 Bft) 98,58 %
05.10.2018 02:00 9,9 C 9,2 C 9,4 C 93 % 1020,8 hPa 0,0 l/m 0,00 h 0,00 h 0 W/m 10,6 km/h (2 Bft) 98,01 %
05.10.2018 03:00 9,7 C 9,0 C 9,2 C 93 % 1020,3 hPa 0,0 l/m 0,00 h 0,00 h 0 W/m 9,9 km/h (2 Bft) 96,53 %
05.10.2018 04:00 9,3 C 8,4 C 8,8 C 93 % 1019,7 hPa 0,0 l/m 0,00 h 0,00 h 0 W/m 7,2 km/h (2 Bft) 97,52 %
05.10.2018 05:00 8,9 C 8,3 C 8,4 C 93 % 1019,3 hPa 0,0 l/m 0,00 h 0,00 h 0 W/m 7,1 km/h (2 Bft) 97,53 %
05.10.2018 06:00 8,7 C 8,3 C 8,3 C 94 % 1018,8 hPa 0,0 l/m 0,00 h 0,00 h 0 W/m 6,3 km/h (2 Bft) 98,63 %
05.10.2018 07:00 8,5 C 7,9 C 7,9 C 94 % 1018,5 hPa 0,0 l/m 0,00 h 0,00 h 8 W/m 6,7 km/h (2 Bft) 96,87 %
05.10.2018 08:00 8,5 C 8,4 C 8,3 C 94 % 1018,4 hPa 0,0 l/m 0,00 h 0,00 h 20 W/m 11,5 km/h (2 Bft) 95,66 %
05.10.2018 09:00 9,5 C 10,3 C 9,3 C 94 % 1018,4 hPa 0,0 l/m 0,20 h 0,00 h 70 W/m 13,9 km/h (3 Bft) 99,49 %
05.10.2018 10:00 12,5 C 19,0 C 10,9 C 88 % 1018,4 hPa 0,0 l/m 0,30 h 0,00 h 146 W/m 15,3 km/h (3 Bft) 97,73 %
05.10.2018 11:00 16,6 C 23,7 C 12,9 C 74 % 1017,7 hPa 0,0 l/m 0,50 h 0,00 h 215 W/m 13,0 km/h (3 Bft) 99,02 %
05.10.2018 12:00 19,2 C 24,3 C 14,5 C 65 % 1016,8 hPa 0,0 l/m 0,10 h 0,00 h 122 W/m 12,4 km/h (3 Bft) 95,01 %
05.10.2018 13:00 19,7 C 19,3 C 15,8 C 63 % 1015,8 hPa 0,0 l/m 1,00 h 0,00 h 519 W/m 12,6 km/h (3 Bft) 95,94 %
05.10.2018 14:00 20,4 C 20,6 C 16,9 C 60 % 1015,0 hPa 0,0 l/m 0,73 h 0,00 h 376 W/m 12,6 km/h (3 Bft) 98,98 %
05.10.2018 15:00 21,5 C 21,6 C 17,6 C 57 % 1014,3 hPa 0,0 l/m 1,00 h 0,00 h 472 W/m 13,5 km/h (3 Bft) 97,17 %
05.10.2018 16:00 22,3 C 24,3 C 17,4 C 54 % 1013,4 hPa 0,0 l/m 1,00 h 0,00 h 376 W/m 11,6 km/h (2 Bft) 97,42 %
05.10.2018 17:00 22,2 C 21,4 C 16,8 C 53 % 1012,6 hPa 0,0 l/m 0,33 h 0,00 h 115 W/m 9,1 km/h (2 Bft) 97,51 %
05.10.2018 18:00 20,7 C 18,7 C 15,5 C 58 % 1012,5 hPa 0,0 l/m 0,00 h 0,00 h 21 W/m 4,5 km/h (1 Bft) 98,58 %
05.10.2018 19:00 17,5 C 14,4 C 13,1 C 67 % 1012,3 hPa 0,0 l/m 0,00 h 0,00 h 5 W/m 0,0 km/h (0 Bft) 97,93 %
05.10.2018 20:00 14,8 C 12,8 C 11,8 C 75 % 1012,0 hPa 0,0 l/m 0,00 h 0,00 h 0 W/m 0,5 km/h (0 Bft) 92,73 %
05.10.2018 21:00 14,0 C 13,9 C 12,0 C 82 % 1011,7 hPa 0,0 l/m 0,00 h 0,00 h 0 W/m 6,7 km/h (2 Bft) 98,72 %
05.10.2018 22:00 14,1 C 13,2 C 12,2 C 83 % 1011,5 hPa 0,0 l/m 0,00 h 0,00 h 0 W/m 6,5 km/h (2 Bft) 99,29 %
05.10.2018 23:00 13,6 C 12,7 C 11,9 C 85 % 1011,5 hPa 0,0 l/m 0,00 h 0,00 h 0 W/m 7,6 km/h (2 Bft) 95,50 %
06.10.2018 00:00 13,0 C 12,0 C 11,6 C 87 % 1011,4 hPa 0,0 l/m 0,00 h 0,00 h 0 W/m 7,4 km/h (2 Bft) 93,83 %
06.10.2018 01:00 12,2 C 11,1 C 10,9 C 88 % 1011,1 hPa 0,0 l/m 0,00 h 0,00 h 0 W/m 7,5 km/h (2 Bft) 97,51 %
06.10.2018 02:00 11,5 C 10,5 C 10,4 C 90 % 1010,8 hPa 0,0 l/m 0,00 h 0,00 h 0 W/m 5,3 km/h (1 Bft) 97,92 %
06.10.2018 03:00 10,8 C 9,6 C 9,9 C 91 % 1010,2 hPa 0,0 l/m 0,00 h 0,00 h 0 W/m 4,7 km/h (1 Bft) 98,01 %
06.10.2018 04:00 10,3 C 9,4 C 9,5 C 93 % 1009,8 hPa 0,0 l/m 0,00 h 0,00 h 0 W/m 5,7 km/h (1 Bft) 97,68 %
06.10.2018 05:00 10,2 C 9,4 C 9,4 C 94 % 1009,2 hPa 0,0 l/m 0,00 h 0,00 h 0 W/m 6,5 km/h (2 Bft) 97,14 %
06.10.2018 06:00 10,1 C 9,7 C 9,6 C 95 % 1008,6 hPa 0,0 l/m 0,00 h 0,00 h 0 W/m 6,2 km/h (2 Bft) 97,86 %
06.10.2018 07:00 10,2 C 9,6 C 9,6 C 95 % 1008,2 hPa 0,0 l/m 0,00 h 0,00 h 6 W/m 7,8 km/h (2 Bft) 98,42 %
06.10.2018 08:00 10,3 C 10,3 C 9,9 C 96 % 1008,1 hPa 0,0 l/m 0,00 h 0,00 h 21 W/m 9,2 km/h (2 Bft) 95,80 %
06.10.2018 09:00 11,5 C 12,5 C 11,0 C 96 % 1007,9 hPa 0,0 l/m 0,17 h 0,00 h 68 W/m 13,3 km/h (3 Bft) 98,73 %
06.10.2018 10:00 14,5 C 21,3 C 12,5 C 90 % 1007,5 hPa 0,0 l/m 0,33 h 0,00 h 139 W/m 14,0 km/h (3 Bft) 97,73 %
06.10.2018 11:00 19,0 C 26,0 C 14,5 C 75 % 1007,1 hPa 0,0 l/m 0,37 h 0,00 h 182 W/m 13,4 km/h (3 Bft) 98,72 %
06.10.2018 12:00 21,5 C 26,4 C 16,4 C 69 % 1006,8 hPa 0,0 l/m 0,00 h 0,00 h 105 W/m 11,1 km/h (2 Bft) 97,93 %
06.10.2018 13:00 22,2 C 22,3 C 18,1 C 67 % 1006,1 hPa 0,0 l/m 0,97 h 0,00 h 438 W/m 10,1 km/h (2 Bft) 96,20 %
06.10.2018 14:00 23,3 C 23,7 C 19,9 C 62 % 1005,3 hPa 0,0 l/m 0,73 h 0,00 h 327 W/m 9,1 km/h (2 Bft) 98,22 %
06.10.2018 15:00 24,0 C 24,0 C 20,1 C 59 % 1004,8 hPa 0,0 l/m 0,50 h 0,00 h 273 W/m 7,4 km/h (2 Bft) 98,01 %
06.10.2018 16:00 24,7 C 25,5 C 20,2 C 57 % 1004,3 hPa 0,0 l/m 0,80 h 0,00 h 311 W/m 9,3 km/h (2 Bft) 97,43 %
06.10.2018 17:00 24,6 C 23,9 C 19,4 C 58 % 1003,8 hPa 0,0 l/m 0,40 h 0,00 h 119 W/m 7,2 km/h (2 Bft) 96,87 %
06.10.2018 18:00 23,3 C 21,1 C 18,0 C 60 % 1003,9 hPa 0,0 l/m 0,00 h 0,00 h 24 W/m 3,6 km/h (1 Bft) 98,87 %
06.10.2018 19:00 20,7 C 18,5 C 16,1 C 64 % 1004,5 hPa 0,0 l/m 0,00 h 0,00 h 4 W/m 3,7 km/h (1 Bft) 97,72 %
06.10.2018 20:00 18,6 C 16,3 C 14,5 C 71 % 1004,9 hPa 0,0 l/m 0,00 h 0,00 h 0 W/m 0,7 km/h (0 Bft) 96,04 %
06.10.2018 21:00 16,6 C 14,7 C 13,6 C 77 % 1005,5 hPa 0,0 l/m 0,00 h 0,00 h 0 W/m 0,0 km/h (0 Bft) 97,72 %
06.10.2018 22:00 15,6 C 14,8 C 13,7 C 82 % 1006,3 hPa 0,0 l/m 0,00 h 0,00 h 0 W/m 2,0 km/h (1 Bft) 99,22 %
06.10.2018 23:00 15,4 C 14,4 C 14,1 C 85 % 1007,1 hPa 0,0 l/m 0,00 h 0,00 h 0 W/m 7,8 km/h (2 Bft) 97,81 %
07.10.2018 00:00 15,4 C 14,8 C 14,3 C 86 % 1007,2 hPa 0,0 l/m 0,00 h 0,00 h 0 W/m 9,7 km/h (2 Bft) 92,00 %
07.10.2018 01:00 15,3 C 14,4 C 13,9 C 86 % 1008,0 hPa 0,0 l/m 0,00 h 0,00 h 0 W/m 10,5 km/h (2 Bft) 99,15 %
07.10.2018 02:00 15,1 C 14,1 C 13,8 C 88 % 1009,3 hPa 0,0 l/m 0,00 h 0,00 h 0 W/m 11,3 km/h (2 Bft) 97,14 %
07.10.2018 03:00 14,6 C 13,2 C 12,7 C 90 % 1010,4 hPa 1,8 l/m 0,00 h 0,73 h 0 W/m 7,1 km/h (2 Bft) 97,73 %
07.10.2018 04:00 14,0 C 12,4 C 12,2 C 93 % 1010,2 hPa 0,2 l/m 0,00 h 0,20 h 0 W/m 9,4 km/h (2 Bft) 97,20 %
07.10.2018 05:00 13,1 C 11,7 C 11,5 C 95 % 1010,8 hPa 0,0 l/m 0,00 h 0,00 h 0 W/m 16,8 km/h (3 Bft) 96,87 %
07.10.2018 06:00 11,8 C 10,5 C 10,6 C 95 % 1011,9 hPa 0,0 l/m 0,00 h 0,00 h 0 W/m 18,8 km/h (3 Bft) 99,15 %
07.10.2018 07:00 11,1 C 10,0 C 10,3 C 94 % 1013,1 hPa 0,0 l/m 0,00 h 0,03 h 0 W/m 14,9 km/h (3 Bft) 97,66 %
07.10.2018 08:00 10,8 C 9,9 C 10,0 C 93 % 1014,6 hPa 0,0 l/m 0,00 h 0,00 h 12 W/m 17,0 km/h (3 Bft) 95,39 %
07.10.2018 09:00 10,6 C 10,6 C 10,0 C 86 % 1016,2 hPa 0,0 l/m 0,00 h 0,00 h 45 W/m 18,2 km/h (3 Bft) 99,56 %
07.10.2018 10:00 11,0 C 13,2 C 10,2 C 83 % 1016,6 hPa 0,0 l/m 0,30 h 0,00 h 161 W/m 14,8 km/h (3 Bft) 97,72 %
07.10.2018 11:00 12,6 C 16,0 C 10,9 C 74 % 1017,0 hPa 0,0 l/m 0,23 h 0,00 h 171 W/m 17,4 km/h (3 Bft) 95,73 %
07.10.2018 12:00 13,7 C 18,0 C 11,8 C 70 % 1017,3 hPa 0,0 l/m 0,03 h 0,00 h 116 W/m 16,1 km/h (3 Bft) 98,86 %
07.10.2018 13:00 14,5 C 14,5 C 12,9 C 66 % 1017,7 hPa 0,0 l/m 0,90 h 0,00 h 477 W/m 15,7 km/h (3 Bft) 97,14 %
07.10.2018 14:00 14,9 C 15,0 C 13,4 C 64 % 1017,5 hPa 0,0 l/m 0,63 h 0,00 h 337 W/m 14,7 km/h (3 Bft) 97,51 %
07.10.2018 15:00 15,4 C 15,6 C 13,3 C 63 % 1017,7 hPa 0,0 l/m 1,00 h 0,00 h 434 W/m 10,7 km/h (2 Bft) 98,01 %
07.10.2018 16:00 15,6 C 15,8 C 13,4 C 62 % 1018,2 hPa 0,0 l/m 0,83 h 0,00 h 251 W/m 10,1 km/h (2 Bft) 95,73 %
07.10.2018 17:00 15,2 C 15,0 C 13,3 C 62 % 1018,2 hPa 0,0 l/m 0,83 h 0,00 h 148 W/m 10,9 km/h (2 Bft) 98,50 %
07.10.2018 18:00 14,4 C 13,1 C 12,4 C 65 % 1018,5 hPa 0,0 l/m 0,00 h 0,00 h 28 W/m 7,5 km/h (2 Bft) 95,09 %
07.10.2018 19:00 12,8 C 10,8 C 10,4 C 69 % 1019,1 hPa 0,0 l/m 0,00 h 0,00 h 0 W/m 1,9 km/h (1 Bft) 98,72 %
07.10.2018 20:00 11,1 C 9,7 C 9,3 C 73 % 1019,6 hPa 0,0 l/m 0,00 h 0,00 h 0 W/m 1,3 km/h (1 Bft) 98,30 %
07.10.2018 21:00 10,2 C 8,9 C 8,7 C 77 % 1019,9 hPa 0,0 l/m 0,00 h 0,00 h 0 W/m 1,3 km/h (1 Bft) 97,44 %
07.10.2018 22:00 9,1 C 7,5 C 7,2 C 81 % 1019,9 hPa 0,0 l/m 0,00 h 0,00 h 0 W/m 0,3 km/h (0 Bft) 94,89 %
07.10.2018 23:00 7,9 C 6,5 C 6,4 C 84 % 1019,9 hPa 0,0 l/m 0,00 h 0,00 h 0 W/m 0,0 km/h (0 Bft) 99,19 %
Min-Datum _ 01.10.18 01.10.18 01.10.18 05.10.18 06.10.18 - - - - 01.10.18 07.10.18
_ Min-Zeit 23:22 22:44 22:26 17:06 17:38 - - - - 00:04 00:02
Minimum _ 6,7 C 5,6 C 6,1 C 52 % 1003,7 hPa - - - - 0,0 km/h (0 Bft) 7,69 %
Max-Datum _ 06.10.18 06.10.18 06.10.18 02.10.18 04.10.18 07.10.18 02.10.18 02.10.18 01.10.18 01.10.18 01.10.18
_ Max-Zeit 16:40 12:16 14:36 14:08 10:50 03:36 16:38 12:08 13:58 13:10 00:46
Maximum _ 24,9 C 28,9 C 20,6 C 97 % 1025,7 hPa 1,8 l/m 0,07 h 0,07 h 772 W/m 77,2 km/h
NW (9 Bft)
100,00 %
Durchschnitt _ 12,7 C 12,5 C 11,1 C 83 % 1016,9 hPa #4,0 l/m #28:18 h #5:12 h 157 W/m 8,5 km/h (2 Bft) 97,34 %
© 2018 W. Hausmann